Time;durP1;ratioP1;P1;durP2;ratioP2;P2;SDS_P1;SDS_P2;PMS_P1;PMS_P2;Temp;Humidity;BMP_temperature;BMP_pressure;BME280_temperature;BME280_humidity;BME280_pressure;Samples;Min_cycle;Max_cycle;Signal;HPM_P1;HPM_P2
2023/07/17 03:48:29;;;;;;;19.30;9.73;;;;;;;23.80;62.16;93652.81;4954267;28;20357;-91
2023/07/17 03:50:54;;;;;;;13.25;6.90;;;;;;;23.80;63.21;93658.31;4974978;28;20591;-93
2023/07/17 03:53:20;;;;;;;14.93;6.88;;;;;;;23.82;62.41;93644.69;4981487;28;20052;-92
2023/07/17 03:55:47;;;;;;;8.02;5.35;;;;;;;23.66;62.88;93651.38;4996467;28;20039;-92
2023/07/17 03:58:24;;;;;;;13.43;6.70;;;;;;;23.42;63.74;93651.69;5009084;28;20046;-90
2023/07/17 04:00:53;;;;;;;12.27;6.55;;;;;;;23.32;64.18;93651.44;5005917;28;20031;-91
2023/07/17 04:03:19;;;;;;;9.93;6.10;;;;;;;23.32;63.85;93647.94;4969534;28;20050;-90
2023/07/17 04:05:44;;;;;;;11.48;7.32;;;;;;;23.36;64.58;93654.59;5011350;23;20292;-91
2023/07/17 04:08:11;;;;;;;11.82;7.85;;;;;;;23.27;64.24;93651.56;4965417;28;20241;-90
2023/07/17 04:10:36;;;;;;;37.28;24.58;;;;;;;23.08;64.73;93640.72;4978715;28;20049;-88
2023/07/17 04:13:02;;;;;;;14.52;8.02;;;;;;;23.15;64.48;93648.34;4984989;28;21129;-89
2023/07/17 04:15:29;;;;;;;23.15;7.93;;;;;;;23.12;64.60;93639.13;4980764;28;20038;-89
2023/07/17 04:17:54;;;;;;;28.55;6.97;;;;;;;23.12;64.33;93630.09;4965520;28;20060;-91
2023/07/17 04:20:21;;;;;;;16.27;7.38;;;;;;;23.00;64.62;93628.84;4976067;28;20054;-92
2023/07/17 04:22:46;;;;;;;11.57;7.30;;;;;;;22.88;64.90;93626.38;4967680;28;20057;-92
2023/07/17 04:25:21;;;;;;;15.55;7.57;;;;;;;22.84;64.97;93625.22;4973354;28;20033;-92
2023/07/17 04:27:52;;;;;;;8.63;6.07;;;;;;;22.78;65.19;93616.31;4983155;28;20047;-93
2023/07/17 04:30:18;;;;;;;18.60;6.70;;;;;;;22.74;65.22;93627.63;4975865;28;20111;-93
2023/07/17 04:32:53;;;;;;;12.20;5.85;;;;;;;22.71;65.05;93639.00;4978656;28;20240;-93
2023/07/17 04:35:29;;;;;;;15.40;6.20;;;;;;;22.55;65.67;93636.06;5012384;28;20486;-92
2023/07/17 04:37:56;;;;;;;12.57;6.72;;;;;;;22.54;65.87;93620.78;5022260;28;20717;-90
2023/07/17 04:40:22;;;;;;;22.23;10.27;;;;;;;22.31;66.34;93616.28;5006277;28;20113;-92
2023/07/17 04:42:58;;;;;;;14.30;8.15;;;;;;;22.28;66.22;93631.88;4998395;28;20032;-92
2023/07/17 04:45:23;;;;;;;14.98;8.95;;;;;;;22.20;66.38;93629.00;4979788;28;20116;-92
2023/07/17 04:48:01;;;;;;;11.48;6.50;;;;;;;22.25;66.64;93627.44;4990462;28;20045;-89
2023/07/17 04:50:26;;;;;;;276.50;26.95;;;;;;;22.12;67.17;93614.38;5017802;28;20116;-92
2023/07/17 04:52:55;;;;;;;144.05;17.67;;;;;;;22.16;67.55;93616.81;5019131;28;20123;-91
2023/07/17 04:55:23;;;;;;;147.55;19.02;;;;;;;22.20;66.86;93614.50;4980480;28;20830;-92
2023/07/17 04:57:49;;;;;;;105.28;22.27;;;;;;;22.33;66.75;93622.72;5003151;28;20049;-94
2023/07/17 05:00:16;;;;;;;62.45;19.05;;;;;;;22.45;66.08;93626.03;4991586;28;20042;-92
2023/07/17 05:02:41;;;;;;;55.63;22.42;;;;;;;22.62;65.96;93628.41;4982642;28;20037;-93
2023/07/17 05:05:07;;;;;;;25.02;10.73;;;;;;;22.64;66.33;93620.34;4980145;28;20049;-91
2023/07/17 05:07:45;;;;;;;19.00;7.07;;;;;;;22.52;66.80;93622.59;4983593;28;20527;-90
2023/07/17 05:10:11;;;;;;;19.02;7.53;;;;;;;22.56;67.08;93628.53;4981654;28;20049;-93
2023/07/17 05:12:39;;;;;;;17.58;7.88;;;;;;;22.56;67.31;93628.53;4994930;28;20053;-92
2023/07/17 05:15:06;;;;;;;12.32;8.50;;;;;;;22.72;66.07;93634.97;5002357;28;20057;-93
2023/07/17 05:17:36;;;;;;;38.47;13.57;;;;;;;22.73;66.08;93639.97;4984795;28;20034;-92
2023/07/17 05:20:06;;;;;;;18.38;7.15;;;;;;;22.82;65.59;93636.03;5013453;28;20044;-93
2023/07/17 05:22:32;;;;;;;;;;;;;;;22.86;65.57;93641.97;4988182;28;20054;-92
2023/07/17 05:24:59;;;;;;;23.80;8.27;;;;;;;22.84;65.10;93644.50;4992457;28;19921;-93
2023/07/17 05:27:24;;;;;;;28.50;11.63;;;;;;;22.86;65.46;93634.44;4974873;28;20050;-90
2023/07/17 05:29:50;;;;;;;18.45;7.22;;;;;;;22.94;65.00;93645.53;4956920;28;20065;-91
2023/07/17 05:32:15;;;;;;;30.83;8.18;;;;;;;22.83;64.75;93637.50;4972710;28;20053;-93
2023/07/17 05:34:41;;;;;;;25.42;9.52;;;;;;;22.90;65.45;93631.34;4965672;28;20472;-92
2023/07/17 05:37:06;;;;;;;27.90;9.63;;;;;;;22.85;65.18;93640.47;4959901;28;20041;-91
2023/07/17 05:39:33;;;;;;;26.90;8.65;;;;;;;22.82;65.24;93628.50;4972600;28;20046;-91
2023/07/17 05:41:59;;;;;;;25.15;8.43;;;;;;;22.93;65.56;93640.56;4961598;28;20070;-90
2023/07/17 05:44:24;;;;;;;14.68;7.28;;;;;;;22.94;64.97;93640.03;4971561;28;20437;-91
2023/07/17 05:46:50;;;;;;;13.95;5.90;;;;;;;22.93;64.94;93638.56;4992665;28;20052;-91
2023/07/17 05:49:15;;;;;;;16.50;7.78;;;;;;;22.99;63.78;93652.19;4982103;23;20053;-91
2023/07/17 05:51:41;;;;;;;20.20;7.35;;;;;;;22.96;63.68;93659.50;4945045;28;20073;-93
2023/07/17 05:54:06;;;;;;;16.33;5.95;;;;;;;23.08;63.42;93662.78;4940198;28;20047;-93
2023/07/17 05:56:33;;;;;;;16.65;5.03;;;;;;;23.02;63.42;93662.16;4929601;28;20218;-93
2023/07/17 05:58:59;;;;;;;13.95;6.00;;;;;;;23.04;64.15;93648.56;4975947;28;20051;-91
2023/07/17 06:01:24;;;;;;;12.57;5.32;;;;;;;23.04;64.32;93659.59;4913165;28;20048;-92
2023/07/17 06:03:50;;;;;;;18.83;5.68;;;;;;;23.05;64.75;93656.31;4938101;28;20136;-91
2023/07/17 06:06:15;;;;;;;32.47;8.25;;;;;;;23.11;64.72;93651.41;4928170;28;20055;-90
2023/07/17 06:08:45;;;;;;;8.77;5.07;;;;;;;23.15;65.02;93651.84;4911727;29;20169;-87
2023/07/17 06:11:10;;;;;;;17.55;15.48;;;;;;;23.23;64.12;93649.13;4954186;28;20042;-88
2023/07/17 06:13:37;;;;;;;24.33;21.67;;;;;;;23.17;63.38;93648.50;4930049;28;20458;-90
2023/07/17 06:16:02;;;;;;;7.65;5.13;;;;;;;23.13;62.89;93642.63;4936375;28;20450;-90
2023/07/17 06:18:28;;;;;;;11.00;6.90;;;;;;;23.21;63.18;93657.94;4946993;28;20054;-89
2023/07/17 06:20:55;;;;;;;6.85;4.82;;;;;;;23.18;62.56;93652.75;4921325;28;20094;-89
2023/07/17 06:23:22;;;;;;;9.02;4.80;;;;;;;22.98;62.79;93658.97;4932958;28;20126;-94
2023/07/17 06:25:48;;;;;;;12.00;5.30;;;;;;;23.00;62.71;93675.72;4972564;28;20046;-89
2023/07/17 06:28:14;;;;;;;12.93;5.53;;;;;;;23.00;63.08;93689.53;4976850;28;20089;-91
2023/07/17 06:30:40;;;;;;;13.88;8.02;;;;;;;23.05;63.26;93697.69;4973180;28;20181;-91
2023/07/17 06:33:05;;;;;;;33.97;16.52;;;;;;;23.07;63.21;93697.88;4971244;28;20156;-94
2023/07/17 06:35:31;;;;;;;46.85;20.42;;;;;;;23.14;63.41;93705.50;4974300;28;20448;-92
2023/07/17 06:37:56;;;;;;;81.25;31.33;;;;;;;23.16;63.04;93716.75;4974686;28;20477;-92
2023/07/17 06:40:21;;;;;;;80.22;31.02;;;;;;;23.21;63.82;93710.34;4952819;28;21095;-90
2023/07/17 06:42:47;;;;;;;103.78;39.78;;;;;;;23.21;63.56;93715.88;4972595;28;20061;-91
2023/07/17 06:45:14;;;;;;;35.72;14.27;;;;;;;23.25;63.50;93719.03;4971366;28;20046;-92
2023/07/17 06:47:40;;;;;;;34.47;15.40;;;;;;;23.19;63.69;93720.44;5000510;28;20106;-94
2023/07/17 06:50:06;;;;;;;50.17;21.88;;;;;;;23.18;64.13;93736.25;4990319;28;20054;-93
2023/07/17 06:52:31;;;;;;;23.83;10.88;;;;;;;23.27;63.17;93739.84;4975657;28;20046;-92
2023/07/17 06:54:57;;;;;;;74.18;24.92;;;;;;;23.21;63.69;93750.97;4949519;28;20035;-93
2023/07/17 06:57:22;;;;;;;54.83;17.90;;;;;;;23.33;63.28;93760.50;4970481;28;20163;-94
2023/07/17 06:59:48;;;;;;;77.15;30.52;;;;;;;23.29;63.21;93767.63;4991001;28;20057;-94
2023/07/17 07:02:13;;;;;;;71.97;35.65;;;;;;;23.29;63.31;93765.59;4974973;28;20061;-92
2023/07/17 07:04:38;;;;;;;90.25;44.30;;;;;;;23.17;63.99;93761.59;5002393;23;20137;-94
2023/07/17 07:07:13;;;;;;;196.60;91.80;;;;;;;23.17;63.95;93754.06;4974624;28;20081;-93
2023/07/17 07:09:40;;;;;;;82.15;33.53;;;;;;;23.19;63.95;93753.53;5023174;28;20030;-94
2023/07/17 07:12:05;;;;;;;59.33;30.27;;;;;;;23.25;63.65;93759.69;4966103;28;20595;-93
2023/07/17 07:14:31;;;;;;;105.80;55.83;;;;;;;23.34;63.33;93755.72;4944576;28;20077;-93
2023/07/17 07:16:56;;;;;;;119.50;58.10;;;;;;;23.41;63.40;93772.34;4946056;28;20043;-93
2023/07/17 07:19:22;;;;;;;115.43;49.90;;;;;;;23.31;64.02;93781.63;4926468;28;20535;-95
2023/07/17 07:21:48;;;;;;;109.55;48.03;;;;;;;23.29;64.44;93786.94;4948775;28;20073;-94
2023/07/17 07:24:15;;;;;;;121.10;47.08;;;;;;;23.35;64.72;93785.56;4939345;28;20061;-95
2023/07/17 07:26:41;;;;;;;132.65;42.60;;;;;;;23.30;64.89;93786.41;4950398;28;20073;-93
2023/07/17 07:29:07;;;;;;;130.27;41.25;;;;;;;23.12;65.71;93793.56;4946684;28;20047;-93
2023/07/17 07:31:35;;;;;;;101.88;33.53;;;;;;;23.12;65.79;93796.31;4954877;28;20107;-93
2023/07/17 07:34:04;;;;;;;104.05;31.40;;;;;;;23.13;65.97;93808.81;4941512;28;20059;-94
2023/07/17 07:36:30;;;;;;;84.95;26.13;;;;;;;23.15;65.81;93817.31;4948652;28;20059;-94
2023/07/17 07:38:57;;;;;;;49.35;17.08;;;;;;;23.10;66.82;93811.91;4943748;28;20083;-92
2023/07/17 07:41:23;;;;;;;70.57;22.38;;;;;;;22.97;66.99;93817.41;4924777;28;20092;-95
2023/07/17 07:43:48;;;;;;;28.20;15.27;;;;;;;22.94;67.19;93819.25;4971949;28;20062;-94
2023/07/17 07:46:15;;;;;;;75.63;25.15;;;;;;;22.95;66.74;93833.75;4993675;28;20038;-91
2023/07/17 07:48:40;;;;;;;64.45;18.92;;;;;;;22.97;66.42;93847.75;4995328;28;20406;-91
2023/07/17 07:51:26;;;;;;;35.17;14.35;;;;;;;22.88;66.87;93866.22;5011090;28;20463;-92
2023/07/17 07:53:53;;;;;;;55.10;19.88;;;;;;;23.01;66.45;93870.97;5001769;28;20420;-93
2023/07/17 07:56:18;;;;;;;44.15;17.05;;;;;;;23.04;66.28;93864.41;4998172;28;20122;-93
2023/07/17 07:58:44;;;;;;;39.13;13.45;;;;;;;22.96;66.73;93860.78;5017741;28;20052;-92
2023/07/17 08:01:10;;;;;;;67.80;21.33;;;;;;;23.00;66.49;93854.94;4998884;28;20101;-91
2023/07/17 08:03:37;;;;;;;28.77;12.23;;;;;;;22.93;66.60;93867.38;4998765;28;20042;-92
2023/07/17 08:06:03;;;;;;;80.25;27.80;;;;;;;22.97;66.61;93873.28;4983224;28;20049;-92
2023/07/17 08:08:28;;;;;;;51.03;16.95;;;;;;;22.96;66.77;93876.59;4980601;28;20051;-93
2023/07/17 08:11:15;;;;;;;;;;;;;;;;;;;;;
2023/07/17 08:13:42;;;;;;;46.88;15.82;;;;;;;23.08;66.16;93889.66;4985255;28;20485;-95
2023/07/17 08:16:08;;;;;;;55.03;18.33;;;;;;;23.08;66.20;93880.63;4973721;28;20034;-93
2023/07/17 08:18:33;;;;;;;39.97;15.57;;;;;;;23.16;65.66;93895.28;4974027;28;20042;-93
2023/07/17 08:20:59;;;;;;;38.17;13.23;;;;;;;23.21;65.20;93886.88;4994703;28;20136;-94
2023/07/17 08:23:29;;;;;;;48.78;14.05;;;;;;;23.22;65.25;93899.41;4965521;28;20042;-93
2023/07/17 08:25:55;;;;;;;45.70;15.23;;;;;;;23.17;65.83;93910.53;4980807;28;20118;-93
2023/07/17 08:28:22;;;;;;;76.07;20.50;;;;;;;23.16;65.65;93920.84;4979946;28;20362;-93
2023/07/17 08:30:52;;;;;;;69.68;23.08;;;;;;;23.19;65.68;93916.25;4980497;28;20053;-93
2023/07/17 08:33:18;;;;;;;53.20;20.63;;;;;;;23.18;65.77;93909.25;4998118;28;20165;-93
2023/07/17 08:35:44;;;;;;;46.92;16.90;;;;;;;23.23;65.50;93906.41;4987053;28;20034;-93
2023/07/17 08:38:13;;;;;;;50.58;15.80;;;;;;;23.23;65.40;93900.88;4988744;28;20049;-94
2023/07/17 08:40:39;;;;;;;52.10;17.00;;;;;;;23.23;65.14;93906.41;4976636;28;20142;-91
2023/07/17 08:43:06;;;;;;;46.25;19.60;;;;;;;23.29;65.27;93889.75;4961894;28;20034;-91
2023/07/17 08:45:33;;;;;;;85.55;25.48;;;;;;;23.22;65.70;93885.59;4983981;28;20048;-93
2023/07/17 08:47:58;;;;;;;62.95;18.58;;;;;;;23.22;65.86;93871.81;4974798;28;20073;-93
2023/07/17 08:50:24;;;;;;;105.30;31.63;;;;;;;23.21;65.86;93856.53;4968351;28;21019;-91
2023/07/17 08:52:49;;;;;;;95.18;30.63;;;;;;;23.30;65.40;93855.38;4975741;28;20069;-92
2023/07/17 08:55:15;;;;;;;68.40;22.58;;;;;;;23.24;66.19;93840.94;4980037;28;20046;-93
2023/07/17 09:00:06;;;;;;;33.42;12.98;;;;;;;23.26;65.32;93852.19;5047316;23;20109;-94
2023/07/17 09:02:33;;;;;;;76.28;25.05;;;;;;;23.16;65.81;93853.91;5005228;28;20109;-93
2023/07/17 09:04:58;;;;;;;45.05;15.02;;;;;;;23.21;66.15;93869.59;4993581;28;20054;-92
2023/07/17 09:07:24;;;;;;;102.10;25.52;;;;;;;23.20;66.54;93866.09;4992229;28;20045;-93
2023/07/17 09:10:17;;;;;;;80.88;19.48;;;;;;;23.25;66.21;93870.00;5004384;28;20042;-93
2023/07/17 09:12:43;;;;;;;104.22;25.02;;;;;;;23.22;66.36;93871.06;4953888;28;20134;-91
2023/07/17 09:15:12;;;;;;;76.13;23.85;;;;;;;23.21;66.75;93875.09;4941687;28;20122;-92
2023/07/17 09:17:37;;;;;;;116.97;23.95;;;;;;;23.24;66.54;93879.56;4960188;28;20050;-94
2023/07/17 09:20:10;;;;;;;121.35;36.13;;;;;;;23.32;66.27;93893.47;4899174;29;20047;-92
2023/07/17 09:22:39;;;;;;;70.28;34.63;;;;;;;23.31;66.48;93897.50;4945261;28;20118;-91
2023/07/17 09:25:05;;;;;;;74.90;26.73;;;;;;;23.40;66.86;93899.81;4946863;28;20113;-92
2023/07/17 09:27:47;;;;;;;76.45;38.58;;;;;;;23.40;66.26;93914.34;4915022;29;20748;-93
2023/07/17 09:30:16;;;;;;;133.40;53.47;;;;;;;23.42;65.92;93911.78;4936908;28;20055;-92
2023/07/17 09:32:41;;;;;;;103.82;40.00;;;;;;;23.37;66.49;93914.69;4890030;29;20474;-91
2023/07/17 09:35:08;;;;;;;156.18;57.33;;;;;;;23.42;66.33;93917.31;4934349;28;20044;-92
2023/07/17 09:37:34;;;;;;;154.98;48.92;;;;;;;23.49;65.99;93918.69;4936739;28;20046;-90
2023/07/17 09:40:11;;;;;;;112.93;50.25;;;;;;;23.50;66.06;93922.94;4934863;29;20040;-90
2023/07/17 09:42:40;;;;;;;162.10;60.05;;;;;;;23.47;66.20;93921.25;4920427;29;20190;-88
2023/07/17 09:45:06;;;;;;;156.57;60.63;;;;;;;23.53;65.80;93908.13;4900932;29;20089;-90
2023/07/17 09:47:32;;;;;;;154.50;52.38;;;;;;;23.63;65.79;93911.16;4919131;29;20115;-92
2023/07/17 09:50:01;;;;;;;125.28;47.90;;;;;;;23.56;65.87;93910.56;4981526;28;20041;-91
2023/07/17 09:52:28;;;;;;;116.93;46.78;;;;;;;23.51;66.06;93916.16;4983478;28;20117;-90
2023/07/17 09:54:54;;;;;;;84.03;31.70;;;;;;;23.48;65.59;93912.44;4998759;28;20483;-92
2023/07/17 09:57:35;;;;;;;118.15;31.23;;;;;;;23.52;65.69;93920.44;4998050;28;20040;-92
2023/07/17 10:00:18;;;;;;;119.55;29.33;;;;;;;23.50;65.47;93918.16;5004788;28;20128;-91
2023/07/17 10:02:59;;;;;;;120.97;23.52;;;;;;;23.49;65.20;93908.41;4979466;28;20034;-90
2023/07/17 10:05:24;;;;;;;97.20;24.83;;;;;;;23.53;65.26;93916.41;4993869;28;20119;-93
2023/07/17 10:07:50;;;;;;;75.57;22.23;;;;;;;23.40;65.46;93917.09;5001282;28;20046;-93
2023/07/17 10:10:16;;;;;;;33.70;14.40;;;;;;;23.45;65.05;93912.75;4977770;28;20041;-93
2023/07/17 10:12:41;;;;;;;54.72;19.23;;;;;;;23.40;65.14;93908.81;4995539;28;20057;-92
2023/07/17 10:15:07;;;;;;;53.75;20.52;;;;;;;23.41;65.10;93904.06;4995097;28;20111;-94
2023/07/17 10:17:34;;;;;;;47.55;18.08;;;;;;;23.40;65.22;93910.84;4999969;28;20057;-93
2023/07/17 10:20:03;;;;;;;41.90;16.48;;;;;;;23.36;65.09;93904.94;4994774;28;20046;-92
2023/07/17 10:22:34;;;;;;;28.95;14.82;;;;;;;23.32;65.06;93904.50;4985964;28;20041;-93
2023/07/17 10:25:17;;;;;;;19.70;12.10;;;;;;;23.32;64.99;93901.75;4997511;28;20076;-92
2023/07/17 10:27:51;;;;;;;26.63;11.40;;;;;;;23.34;65.01;93894.41;5008893;28;20065;-94
2023/07/17 10:30:28;;;;;;;50.33;14.15;;;;;;;23.33;64.83;93903.97;4985671;28;20038;-94
2023/07/17 10:33:15;;;;;;;24.45;10.68;;;;;;;23.29;64.88;93887.00;4996490;28;20044;-91
2023/07/17 10:35:51;;;;;;;16.52;9.65;;;;;;;23.33;64.77;93883.91;4997062;28;20033;-92
2023/07/17 10:38:23;;;;;;;21.25;10.57;;;;;;;23.37;64.70;93882.31;4980915;28;20033;-93
2023/07/17 10:40:49;;;;;;;13.10;7.78;;;;;;;23.42;65.61;93889.72;4990743;28;20038;-92
2023/07/17 10:43:18;;;;;;;11.63;7.95;;;;;;;23.42;65.55;93886.22;4972525;28;20681;-92
2023/07/17 10:45:45;;;;;;;12.20;8.63;;;;;;;23.41;66.25;93881.97;4991484;28;20057;-92
2023/07/17 10:48:13;;;;;;;16.33;10.18;;;;;;;23.42;65.50;93877.94;5000711;28;20038;-94
2023/07/17 10:50:52;;;;;;;24.05;13.27;;;;;;;23.37;65.38;93879.56;4975205;28;20377;-94
2023/07/17 10:53:18;;;;;;;21.73;13.95;;;;;;;23.43;65.31;93871.16;4987774;28;20100;-91
2023/07/17 10:55:43;;;;;;;50.95;21.85;;;;;;;23.46;65.07;93865.31;4997235;28;20500;-91
2023/07/17 10:58:09;;;;;;;84.60;24.27;;;;;;;23.49;65.90;93866.28;4985867;28;20374;-93
2023/07/17 11:00:34;;;;;;;67.78;28.05;;;;;;;23.50;65.17;93859.47;4995661;28;20034;-93
2023/07/17 11:03:00;;;;;;;79.10;27.45;;;;;;;23.48;65.02;93862.75;4983175;28;20049;-91
2023/07/17 11:05:26;;;;;;;124.00;49.40;;;;;;;23.53;64.64;93872.25;4984440;28;20048;-92
2023/07/17 11:07:55;;;;;;;131.43;54.22;;;;;;;23.57;64.68;93865.13;4997540;28;20133;-93
2023/07/17 11:10:20;;;;;;;88.15;40.85;;;;;;;23.56;64.80;93868.41;5001852;28;20069;-92
2023/07/17 11:12:45;;;;;;;127.30;44.53;;;;;;;23.53;64.59;93872.97;5016255;28;20033;-93
2023/07/17 11:15:17;;;;;;;75.38;31.38;;;;;;;23.61;64.42;93870.28;4982775;28;20124;-92
2023/07/17 11:17:47;;;;;;;86.05;30.23;;;;;;;23.61;63.96;93873.06;4980885;28;20125;-94
2023/07/17 11:20:13;;;;;;;99.43;34.47;;;;;;;23.68;64.28;93858.59;4984398;28;20049;-93
2023/07/17 11:22:42;;;;;;;100.10;32.13;;;;;;;23.65;64.18;93867.97;4983012;28;20068;-93
2023/07/17 11:25:10;;;;;;;94.53;37.97;;;;;;;23.63;64.51;93855.97;5009365;28;20045;-92
2023/07/17 11:27:37;;;;;;;81.97;32.83;;;;;;;23.81;63.79;93860.59;4980593;28;20037;-92
2023/07/17 11:30:19;;;;;;;60.15;26.52;;;;;;;23.67;63.77;93848.84;4998102;28;20060;-91
2023/07/17 11:32:54;;;;;;;50.60;24.88;;;;;;;23.71;63.88;93852.03;4999850;28;20362;-91
2023/07/17 11:35:21;;;;;;;40.17;18.45;;;;;;;23.67;63.39;93837.81;4993012;28;20136;-93
2023/07/17 11:37:46;;;;;;;28.50;16.52;;;;;;;23.64;63.70;93836.09;4989957;28;20053;-92
2023/07/17 11:40:12;;;;;;;23.88;15.27;;;;;;;23.61;63.50;93839.19;4986630;28;20052;-91
2023/07/17 11:42:57;;;;;;;40.63;19.30;;;;;;;23.53;64.17;93830.84;4983887;28;20041;-91
2023/07/17 11:45:26;;;;;;;37.47;25.05;;;;;;;23.57;63.93;93842.31;5000422;28;20099;-92
2023/07/17 11:47:53;;;;;;;45.50;29.98;;;;;;;23.51;64.06;93827.84;5028980;28;20108;-91
2023/07/17 11:50:22;;;;;;;50.20;23.60;;;;;;;23.44;64.47;93839.53;5001256;28;20401;-92
2023/07/17 11:52:48;;;;;;;42.63;22.55;;;;;;;23.41;64.23;93844.09;5006311;28;20036;-93
2023/07/17 11:55:43;;;;;;;45.40;23.25;;;;;;;23.33;64.58;93828.75;5014691;28;20123;-94
2023/07/17 11:58:14;;;;;;;62.95;29.17;;;;;;;23.40;64.46;93833.59;4965538;28;20039;-92
2023/07/17 12:00:42;;;;;;;58.40;28.77;;;;;;;23.41;64.49;93833.06;4961964;28;20043;-92
2023/07/17 12:03:08;;;;;;;48.22;27.25;;;;;;;23.41;63.14;93833.06;4926969;28;20159;-92
2023/07/17 12:05:35;;;;;;;49.83;26.13;;;;;;;23.35;63.01;93829.69;4909521;29;20039;-92
2023/07/17 12:08:01;;;;;;;38.20;21.55;;;;;;;23.33;62.98;93829.47;4942728;28;20047;-93
2023/07/17 12:10:27;;;;;;;46.92;23.45;;;;;;;23.38;63.04;93827.88;4940905;28;20573;-92
2023/07/17 12:12:53;;;;;;;50.17;20.65;;;;;;;23.35;63.40;93826.94;4918554;28;20043;-92
2023/07/17 12:15:18;;;;;;;59.13;28.17;;;;;;;23.33;63.66;93828.75;4928349;28;20042;-89
2023/07/17 12:17:45;;;;;;;47.38;24.45;;;;;;;23.29;64.15;93831.06;4923048;29;20058;-93
2023/07/17 12:20:11;;;;;;;83.95;39.33;;;;;;;23.33;63.98;93825.97;4927547;28;20047;-94
2023/07/17 12:22:37;;;;;;;99.50;32.72;;;;;;;23.29;63.49;93829.06;4927766;28;20047;-91
2023/07/17 12:25:03;;;;;;;180.40;86.60;;;;;;;23.23;63.46;93826.41;4911448;29;20513;-93
2023/07/17 12:27:30;;;;;;;199.05;85.07;;;;;;;23.29;63.36;93818.03;4914270;29;20098;-91
2023/07/17 12:29:55;;;;;;;139.98;62.88;;;;;;;23.28;63.51;93819.28;4927076;29;20135;-94
2023/07/17 12:32:32;;;;;;;88.10;42.97;;;;;;;23.29;63.26;93823.53;4907492;28;20051;-92
2023/07/17 12:35:02;;;;;;;61.40;38.45;;;;;;;23.34;63.83;93824.72;4992403;28;20049;-92
2023/07/17 12:37:31;;;;;;;60.55;34.33;;;;;;;23.41;63.66;93808.22;4989029;28;20124;-91
2023/07/17 12:40:06;;;;;;;66.93;41.40;;;;;;;23.41;63.24;93815.75;5007542;28;20117;-93
2023/07/17 12:42:37;;;;;;;46.88;29.80;;;;;;;23.38;63.76;93801.03;5001540;28;20100;-93
2023/07/17 12:45:03;;;;;;;34.33;24.33;;;;;;;23.41;63.35;93799.94;4997534;28;20502;-89
2023/07/17 12:47:28;;;;;;;14.82;11.82;;;;;;;23.42;63.71;93793.16;5018896;28;20034;-93
2023/07/17 12:49:55;;;;;;;28.30;19.85;;;;;;;23.51;63.42;93798.22;4990656;28;20120;-94
2023/07/17 12:52:20;;;;;;;18.67;14.55;;;;;;;23.49;62.74;93797.28;4967814;28;20042;-92
2023/07/17 12:54:46;;;;;;;16.65;9.70;;;;;;;23.50;63.07;93796.00;4997569;28;20049;-91
2023/07/17 12:57:11;;;;;;;13.82;11.75;;;;;;;23.50;62.71;93793.25;5026797;28;20041;-92
2023/07/17 12:59:37;;;;;;;22.50;16.10;;;;;;;23.49;63.03;93794.53;5025182;28;20103;-93
2023/07/17 13:02:04;;;;;;;41.45;20.38;;;;;;;23.52;62.92;93793.47;4994002;28;20091;-94
2023/07/17 13:04:30;;;;;;;111.82;54.50;;;;;;;23.43;63.15;93789.13;5021845;28;20098;-95
2023/07/17 13:06:57;;;;;;;109.50;60.63;;;;;;;23.49;63.17;93794.53;5010630;28;20049;-94
2023/07/17 13:09:31;;;;;;;89.57;52.50;;;;;;;23.42;62.84;93795.91;5015981;28;20041;-95
2023/07/17 13:11:57;;;;;;;103.07;48.95;;;;;;;23.39;62.82;93793.47;5012754;28;20064;-93
2023/07/17 13:14:24;;;;;;;98.15;47.63;;;;;;;23.39;62.75;93793.47;5016093;28;20038;-94
2023/07/17 13:16:53;;;;;;;69.25;34.97;;;;;;;23.37;62.89;93788.50;4983710;28;20070;-92
2023/07/17 13:19:22;;;;;;;112.32;52.58;;;;;;;23.42;63.19;93784.88;4952065;28;20042;-92
2023/07/17 13:21:47;;;;;;;122.22;56.17;;;;;;;23.39;62.65;93780.41;4972092;28;20034;-92
2023/07/17 13:24:18;;;;;;;123.13;56.63;;;;;;;23.39;62.37;93785.94;4961623;28;20064;-91
2023/07/17 13:26:59;;;;;;;123.03;54.03;;;;;;;23.43;62.43;93775.31;4970613;28;20085;-92
2023/07/17 13:29:24;;;;;;;137.15;54.90;;;;;;;23.47;62.49;93778.50;4966695;28;20034;-93
2023/07/17 13:31:51;;;;;;;87.80;42.78;;;;;;;23.50;62.70;93777.44;4952137;28;20441;-93
2023/07/17 13:34:34;;;;;;;102.60;46.10;;;;;;;23.60;62.01;93782.53;4956121;28;20049;-92
2023/07/17 13:37:01;;;;;;;92.50;35.50;;;;;;;23.61;62.17;93781.22;5023794;22;20082;-92
2023/07/17 13:39:26;;;;;;;109.13;38.72;;;;;;;23.65;61.84;93773.38;4997943;28;20057;-94
2023/07/17 13:41:52;;;;;;;98.15;44.17;;;;;;;23.57;62.28;93771.28;4991740;28;20042;-95
2023/07/17 13:44:28;;;;;;;89.35;32.55;;;;;;;23.54;62.19;93777.88;4949712;28;20042;-93
2023/07/17 13:46:53;;;;;;;51.65;22.85;;;;;;;23.58;62.20;93767.25;4966435;28;20034;-94
2023/07/17 13:49:24;;;;;;;52.05;22.17;;;;;;;23.59;62.20;93770.75;4969502;28;20045;-94
2023/07/17 13:52:25;;;;;;;38.53;18.38;;;;;;;23.61;61.96;93773.69;5001695;28;20073;-94
2023/07/17 13:54:53;;;;;;;20.17;10.18;;;;;;;23.70;61.98;93764.22;4838369;29;20041;-93
2023/07/17 13:57:20;;;;;;;80.05;18.95;;;;;;;23.70;61.56;93769.75;4827194;29;20046;-93
2023/07/17 13:59:49;;;;;;;68.13;24.23;;;;;;;23.69;61.82;93766.25;4855339;29;20084;-95
2023/07/17 14:02:15;;;;;;;73.32;23.90;;;;;;;23.62;62.18;93766.16;4839451;29;20193;-91
2023/07/17 14:04:50;;;;;;;37.15;11.85;;;;;;;23.65;62.18;93765.09;4844900;29;20564;-92
2023/07/17 14:07:16;;;;;;;55.58;22.55;;;;;;;23.65;61.85;93754.78;4859835;29;20053;-93
2023/07/17 14:09:41;;;;;;;40.90;13.75;;;;;;;23.73;61.93;93752.09;4846974;29;20034;-92
2023/07/17 14:12:10;;;;;;;21.38;10.38;;;;;;;23.73;61.64;93741.81;4843660;29;20097;-90
2023/07/17 14:14:35;;;;;;;38.03;10.27;;;;;;;23.74;61.61;93754.34;4857878;29;20046;-91
2023/07/17 14:17:17;;;;;;;71.80;17.05;;;;;;;23.66;61.64;93748.00;4868869;29;20052;-92
2023/07/17 14:20:21;;;;;;;57.65;14.57;;;;;;;23.72;62.22;93750.63;4879702;29;20068;-94
2023/07/17 14:22:46;;;;;;;71.78;24.15;;;;;;;23.75;62.03;93741.28;4840225;29;20046;-94
2023/07/17 14:25:22;;;;;;;48.30;17.25;;;;;;;23.70;61.99;93737.38;4922648;23;20060;-93
2023/07/17 14:27:48;;;;;;;35.58;15.63;;;;;;;23.72;62.39;93739.59;4963183;28;20085;-93
2023/07/17 14:30:18;;;;;;;62.60;24.23;;;;;;;23.69;62.31;93735.88;4995784;23;20113;-95
2023/07/17 14:32:44;;;;;;;31.33;14.05;;;;;;;23.77;61.76;93736.69;5026246;28;20045;-94
2023/07/17 14:35:09;;;;;;;51.50;18.75;;;;;;;23.84;61.86;93736.00;5022701;28;20052;-95
2023/07/17 14:37:36;;;;;;;43.22;15.25;;;;;;;23.93;61.29;93730.03;5022232;28;20057;-94
2023/07/17 14:40:02;;;;;;;20.70;9.20;;;;;;;23.94;60.49;93730.75;5022582;28;20056;-94
2023/07/17 14:42:28;;;;;;;16.05;9.75;;;;;;;24.02;60.34;93728.06;5017610;28;20132;-94
2023/07/17 14:44:53;;;;;;;30.50;14.65;;;;;;;23.99;60.56;93721.59;5032053;28;20099;-94
2023/07/17 14:47:19;;;;;;;55.00;31.33;;;;;;;23.97;60.79;93720.66;5016910;28;20052;-93
2023/07/17 14:49:48;;;;;;;18.23;11.00;;;;;;;23.96;60.95;93716.41;5035584;28;20040;-95
2023/07/17 14:52:22;;;;;;;57.78;31.63;;;;;;;24.02;60.74;93712.25;5015850;28;20073;-92
2023/07/17 14:54:49;;;;;;;74.70;33.45;;;;;;;24.04;60.81;93701.38;4989068;28;20125;-93
2023/07/17 14:57:15;;;;;;;59.45;28.85;;;;;;;24.09;60.36;93711.53;5009986;28;20057;-92
2023/07/17 15:00:15;;;;;;;68.63;20.02;;;;;;;24.08;60.47;93701.78;4988667;28;20043;-94
2023/07/17 15:02:41;;;;;;;54.40;20.52;;;;;;;24.10;60.54;93701.97;4985121;28;20086;-94
2023/07/17 15:05:07;;;;;;;69.18;35.63;;;;;;;24.08;60.49;93701.78;4951446;28;20047;-91
2023/07/17 15:07:32;;;;;;;45.85;29.52;;;;;;;24.14;60.61;93699.63;4954200;28;20051;-90
2023/07/17 15:09:58;;;;;;;89.80;48.72;;;;;;;24.14;59.95;93705.13;4937812;28;20055;-91
2023/07/17 15:12:26;;;;;;;83.88;38.42;;;;;;;24.18;60.17;93713.09;4972021;28;20042;-91
2023/07/17 15:14:51;;;;;;;56.20;33.50;;;;;;;24.30;60.28;93705.25;4957905;28;20057;-90